Rocky Branch, Texas
Current Conditions -  °F | °C
As of 2:55 AM on Sunday 23 Nov 2014 (Local Time) from KOSA Reporting Station
Overcast Overcast  
Wind Chill: 16°   Ceiling: 700
Heat Index: 16°   Visibility: 10mi
Dew Point: 16°   Wind: 3mph
Humidity: 96%   Direction: 170°S
Pressure: 29.66"   Gusts: NA
Location:  33.2006°N, 94.6977°W
Report Text: KOSA 230855Z AUTO 17003KT 10SM OVC007 16/16 A2966 RMK AO1 T01610155
Loading
Personal Weather Stations






























Interactive Weather Map New forecast layout! Learn more

10-Day Weather Forecast

Advertisements
Track Severe Weather on mobile